sensor_id;sensor_type;location;lat;lon;timestamp;pressure;altitude;pressure_sealevel;temperature;humidity
66857;BME280;53766;50.280;19.160;2023-05-11T00:02:22;98599.69;;;18.71;48.60
66857;BME280;53766;50.280;19.160;2023-05-11T00:04:49;98597.81;;;18.72;48.51
66857;BME280;53766;50.280;19.160;2023-05-11T00:07:17;98604.19;;;18.71;48.50
66857;BME280;53766;50.280;19.160;2023-05-11T00:09:44;98598.88;;;18.71;48.66
66857;BME280;53766;50.280;19.160;2023-05-11T00:12:12;98603.38;;;18.70;48.57
66857;BME280;53766;50.280;19.160;2023-05-11T00:14:40;98598.06;;;18.70;48.59
66857;BME280;53766;50.280;19.160;2023-05-11T00:17:07;98597.22;;;18.70;48.73
66857;BME280;53766;50.280;19.160;2023-05-11T00:19:35;98597.22;;;18.70;48.48
66857;BME280;53766;50.280;19.160;2023-05-11T00:22:02;98599.88;;;18.70;48.66
66857;BME280;53766;50.280;19.160;2023-05-11T00:24:30;98599.88;;;18.70;48.69
66857;BME280;53766;50.280;19.160;2023-05-11T00:26:57;98599.25;;;18.68;48.53
66857;BME280;53766;50.280;19.160;2023-05-11T00:29:25;98600.91;;;18.69;48.66
66857;BME280;53766;50.280;19.160;2023-05-11T00:31:52;98603.59;;;18.69;48.53
66857;BME280;53766;50.280;19.160;2023-05-11T00:34:21;98593.91;;;18.68;48.68
66857;BME280;53766;50.280;19.160;2023-05-11T00:36:49;98597.63;;;18.67;48.64
66857;BME280;53766;50.280;19.160;2023-05-11T00:39:16;98597.63;;;18.67;48.77
66857;BME280;53766;50.280;19.160;2023-05-11T00:41:44;98601.09;;;18.67;48.82
66857;BME280;53766;50.280;19.160;2023-05-11T00:44:12;98593.28;;;18.66;48.75
66857;BME280;53766;50.280;19.160;2023-05-11T00:46:39;98601.28;;;18.66;48.72
66857;BME280;53766;50.280;19.160;2023-05-11T00:49:07;98595.97;;;18.66;48.89
66857;BME280;53766;50.280;19.160;2023-05-11T00:51:35;98595.97;;;18.66;48.96
66857;BME280;53766;50.280;19.160;2023-05-11T00:54:03;98595.16;;;18.65;48.70
66857;BME280;53766;50.280;19.160;2023-05-11T00:56:30;98597.00;;;18.65;48.81
66857;BME280;53766;50.280;19.160;2023-05-11T00:58:58;98600.47;;;18.65;48.85
66857;BME280;53766;50.280;19.160;2023-05-11T01:01:25;98600.69;;;18.64;48.75
66857;BME280;53766;50.280;19.160;2023-05-11T01:03:54;98603.34;;;18.64;48.79
66857;BME280;53766;50.280;19.160;2023-05-11T01:07:19;98603.34;;;18.64;48.70
66857;BME280;53766;50.280;19.160;2023-05-11T01:15:45;98601.72;;;18.63;48.83
66857;BME280;53766;50.280;19.160;2023-05-11T01:20:51;98600.09;;;18.62;48.83
66857;BME280;53766;50.280;19.160;2023-05-11T01:29:12;98611.75;;;18.61;48.75
66857;BME280;53766;50.280;19.160;2023-05-11T01:31:49;98609.09;;;18.61;48.78
66857;BME280;53766;50.280;19.160;2023-05-11T01:34:29;98597.59;;;18.60;48.89
66857;BME280;53766;50.280;19.160;2023-05-11T01:37:05;98595.13;;;18.59;48.86
66857;BME280;53766;50.280;19.160;2023-05-11T01:39:45;98599.47;;;18.60;48.83
66857;BME280;53766;50.280;19.160;2023-05-11T01:42:16;98605.81;;;18.59;48.86
66857;BME280;53766;50.280;19.160;2023-05-11T01:44:49;98605.00;;;18.58;48.99
66857;BME280;53766;50.280;19.160;2023-05-11T01:47:20;98600.66;;;18.57;48.90
66857;BME280;53766;50.280;19.160;2023-05-11T01:49:50;98604.16;;;18.58;49.06
66857;BME280;53766;50.280;19.160;2023-05-11T01:52:20;98599.84;;;18.57;49.02
66857;BME280;53766;50.280;19.160;2023-05-11T01:54:50;98602.50;;;18.57;48.93
66857;BME280;53766;50.280;19.160;2023-05-11T01:57:20;98602.50;;;18.57;48.89
66857;BME280;53766;50.280;19.160;2023-05-11T01:59:48;98601.69;;;18.56;48.94
66857;BME280;53766;50.280;19.160;2023-05-11T02:02:18;98603.56;;;18.56;49.17
66857;BME280;53766;50.280;19.160;2023-05-11T02:04:46;98599.03;;;18.56;49.15
66857;BME280;53766;50.280;19.160;2023-05-11T02:07:15;98609.88;;;18.55;48.90
66857;BME280;53766;50.280;19.160;2023-05-11T02:09:44;98609.88;;;18.55;49.19
66857;BME280;53766;50.280;19.160;2023-05-11T02:12:15;98614.41;;;18.54;48.95
66857;BME280;53766;50.280;19.160;2023-05-11T02:14:45;98620.56;;;18.55;49.08
66857;BME280;53766;50.280;19.160;2023-05-11T02:17:14;98614.41;;;18.54;49.05
66857;BME280;53766;50.280;19.160;2023-05-11T02:19:43;98608.25;;;18.54;49.05
66857;BME280;53766;50.280;19.160;2023-05-11T02:22:11;98613.59;;;18.54;49.17
66857;BME280;53766;50.280;19.160;2023-05-11T02:24:40;98612.78;;;18.53;49.18
66857;BME280;53766;50.280;19.160;2023-05-11T02:27:08;98604.97;;;18.52;49.03
66857;BME280;53766;50.280;19.160;2023-05-11T02:29:36;98611.94;;;18.53;49.15
66857;BME280;53766;50.280;19.160;2023-05-11T02:32:07;98613.78;;;18.52;49.11
66857;BME280;53766;50.280;19.160;2023-05-11T02:34:41;98604.16;;;18.51;49.12
66857;BME280;53766;50.280;19.160;2023-05-11T02:37:11;98608.63;;;18.50;48.99
66857;BME280;53766;50.280;19.160;2023-05-11T02:39:43;98608.63;;;18.50;49.10
66857;BME280;53766;50.280;19.160;2023-05-11T02:42:14;98605.97;;;18.50;49.09
66857;BME280;53766;50.280;19.160;2023-05-11T02:44:52;98613.16;;;18.50;48.94
66857;BME280;53766;50.280;19.160;2023-05-11T02:47:21;98608.63;;;18.50;49.04
66857;BME280;53766;50.280;19.160;2023-05-11T02:49:54;98607.00;;;18.49;49.05
66857;BME280;53766;50.280;19.160;2023-05-11T02:52:26;98605.34;;;18.48;49.17
66857;BME280;53766;50.280;19.160;2023-05-11T02:54:55;98609.88;;;18.48;49.06
66857;BME280;53766;50.280;19.160;2023-05-11T02:57:25;98600.03;;;18.48;49.05
66857;BME280;53766;50.280;19.160;2023-05-11T02:59:53;98603.72;;;18.47;49.15
66857;BME280;53766;50.280;19.160;2023-05-11T03:02:21;98603.72;;;18.47;49.06
66857;BME280;53766;50.280;19.160;2023-05-11T03:04:49;98607.19;;;18.48;48.92
66857;BME280;53766;50.280;19.160;2023-05-11T03:07:16;98614.38;;;18.47;49.18
66857;BME280;53766;50.280;19.160;2023-05-11T03:09:44;98610.06;;;18.46;48.98
66857;BME280;53766;50.280;19.160;2023-05-11T03:12:12;98612.72;;;18.46;48.96
66857;BME280;53766;50.280;19.160;2023-05-11T03:14:41;98610.06;;;18.46;49.04
66857;BME280;53766;50.280;19.160;2023-05-11T03:17:11;98618.06;;;18.46;49.01
66857;BME280;53766;50.280;19.160;2023-05-11T03:19:40;98615.41;;;18.46;49.15
66857;BME280;53766;50.280;19.160;2023-05-11T03:22:08;98616.44;;;18.45;49.09
66857;BME280;53766;50.280;19.160;2023-05-11T03:24:37;98611.09;;;18.45;49.14
66857;BME280;53766;50.280;19.160;2023-05-11T03:27:07;98611.09;;;18.45;49.08
66857;BME280;53766;50.280;19.160;2023-05-11T03:29:35;98611.91;;;18.46;49.16
66857;BME280;53766;50.280;19.160;2023-05-11T03:32:04;98616.44;;;18.45;49.21
66857;BME280;53766;50.280;19.160;2023-05-11T03:34:32;98618.28;;;18.45;49.29
66857;BME280;53766;50.280;19.160;2023-05-11T03:36:59;98609.47;;;18.44;49.22
66857;BME280;53766;50.280;19.160;2023-05-11T03:39:29;98615.63;;;18.45;49.30
66857;BME280;53766;50.280;19.160;2023-05-11T03:41:59;98615.63;;;18.45;48.83
66857;BME280;53766;50.280;19.160;2023-05-11T03:44:30;98617.47;;;18.44;49.24
66857;BME280;53766;50.280;19.160;2023-05-11T03:46:59;98619.28;;;18.44;49.19
66857;BME280;53766;50.280;19.160;2023-05-11T03:49:28;98613.13;;;18.43;49.22
66857;BME280;53766;50.280;19.160;2023-05-11T03:51:59;98612.13;;;18.44;49.23
66857;BME280;53766;50.280;19.160;2023-05-11T03:54:27;98614.81;;;18.44;49.23
66857;BME280;53766;50.280;19.160;2023-05-11T03:56:54;98620.13;;;18.44;49.26
66857;BME280;53766;50.280;19.160;2023-05-11T03:59:22;98613.13;;;18.43;49.27
66857;BME280;53766;50.280;19.160;2023-05-11T04:01:51;98617.66;;;18.43;49.23
66857;BME280;53766;50.280;19.160;2023-05-11T04:04:25;98623.81;;;18.43;49.25
66857;BME280;53766;50.280;19.160;2023-05-11T04:06:54;98619.28;;;18.44;49.14
66857;BME280;53766;50.280;19.160;2023-05-11T04:09:22;98615.00;;;18.43;49.31
66857;BME280;53766;50.280;19.160;2023-05-11T04:11:49;98625.47;;;18.44;49.11
66857;BME280;53766;50.280;19.160;2023-05-11T04:14:17;98623.81;;;18.43;49.15
66857;BME280;53766;50.280;19.160;2023-05-11T04:16:45;98633.66;;;18.43;49.20
66857;BME280;53766;50.280;19.160;2023-05-11T04:19:12;98626.47;;;18.43;49.11
66857;BME280;53766;50.280;19.160;2023-05-11T04:21:39;98629.16;;;18.43;49.24
66857;BME280;53766;50.280;19.160;2023-05-11T04:24:07;98623.81;;;18.43;49.27
66857;BME280;53766;50.280;19.160;2023-05-11T04:26:34;98624.63;;;18.44;49.17
66857;BME280;53766;50.280;19.160;2023-05-11T04:29:02;98627.09;;;18.45;49.13
66857;BME280;53766;50.280;19.160;2023-05-11T04:31:30;98633.69;;;18.49;49.16
66857;BME280;53766;50.280;19.160;2023-05-11T04:33:57;98627.31;;;18.50;48.92
66857;BME280;53766;50.280;19.160;2023-05-11T04:36:24;98633.28;;;18.53;48.99
66857;BME280;53766;50.280;19.160;2023-05-11T04:38:52;98626.94;;;18.54;48.87
66857;BME280;53766;50.280;19.160;2023-05-11T04:41:19;98638.22;;;18.56;49.00
66857;BME280;53766;50.280;19.160;2023-05-11T04:43:48;98635.34;;;18.57;49.04
66857;BME280;53766;50.280;19.160;2023-05-11T04:46:16;98633.50;;;18.58;48.94
66857;BME280;53766;50.280;19.160;2023-05-11T04:48:44;98635.16;;;18.59;49.03
66857;BME280;53766;50.280;19.160;2023-05-11T04:51:11;98632.28;;;18.60;49.01
66857;BME280;53766;50.280;19.160;2023-05-11T04:53:39;98637.44;;;18.62;48.94
66857;BME280;53766;50.280;19.160;2023-05-11T04:56:06;98639.88;;;18.63;48.92
66857;BME280;53766;50.280;19.160;2023-05-11T04:58:34;98638.03;;;18.64;48.98
66857;BME280;53766;50.280;19.160;2023-05-11T05:01:01;98643.97;;;18.66;48.91
66857;BME280;53766;50.280;19.160;2023-05-11T05:03:29;98643.16;;;18.65;48.86
66857;BME280;53766;50.280;19.160;2023-05-11T05:05:56;98642.97;;;18.67;48.84
66857;BME280;53766;50.280;19.160;2023-05-11T05:08:23;98641.94;;;18.68;48.59
66857;BME280;53766;50.280;19.160;2023-05-11T05:10:51;98639.88;;;18.70;48.43
66857;BME280;53766;50.280;19.160;2023-05-11T05:13:18;98641.56;;;18.71;48.36
66857;BME280;53766;50.280;19.160;2023-05-11T05:15:46;98639.88;;;18.70;47.24
66857;BME280;53766;50.280;19.160;2023-05-11T05:18:13;98639.69;;;18.65;43.09
66857;BME280;53766;50.280;19.160;2023-05-11T05:20:41;98638.44;;;18.61;41.56
66857;BME280;53766;50.280;19.160;2023-05-11T05:23:08;98635.97;;;18.59;40.78
66857;BME280;53766;50.280;19.160;2023-05-11T05:25:35;98639.84;;;18.57;41.66
66857;BME280;53766;50.280;19.160;2023-05-11T05:28:03;98638.22;;;18.56;42.64
66857;BME280;53766;50.280;19.160;2023-05-11T05:30:31;98640.25;;;18.54;44.46
66857;BME280;53766;50.280;19.160;2023-05-11T05:32:59;98641.28;;;18.53;44.83
66857;BME280;53766;50.280;19.160;2023-05-11T05:35:26;98642.94;;;18.54;44.30
66857;BME280;53766;50.280;19.160;2023-05-11T05:37:54;98637.78;;;18.52;44.23
66857;BME280;53766;50.280;19.160;2023-05-11T05:40:21;98640.47;;;18.52;44.35
66857;BME280;53766;50.280;19.160;2023-05-11T05:42:49;98636.16;;;18.51;44.54
66857;BME280;53766;50.280;19.160;2023-05-11T05:45:16;98635.31;;;18.50;44.39
66857;BME280;53766;50.280;19.160;2023-05-11T05:47:44;98635.31;;;18.50;44.45
66857;BME280;53766;50.280;19.160;2023-05-11T05:50:11;98640.66;;;18.50;44.22
66857;BME280;53766;50.280;19.160;2023-05-11T05:52:39;98643.31;;;18.50;44.56
66857;BME280;53766;50.280;19.160;2023-05-11T05:55:07;98644.34;;;18.49;44.37
66857;BME280;53766;50.280;19.160;2023-05-11T05:57:34;98639.00;;;18.49;44.37
66857;BME280;53766;50.280;19.160;2023-05-11T06:00:02;98644.34;;;18.49;44.27
66857;BME280;53766;50.280;19.160;2023-05-11T06:02:29;98639.00;;;18.49;44.27
66857;BME280;53766;50.280;19.160;2023-05-11T06:04:57;98645.97;;;18.50;44.42
66857;BME280;53766;50.280;19.160;2023-05-11T06:07:25;98644.16;;;18.51;44.50
66857;BME280;53766;50.280;19.160;2023-05-11T06:09:52;98651.31;;;18.50;44.61
66857;BME280;53766;50.280;19.160;2023-05-11T06:12:20;98645.97;;;18.50;44.59
66857;BME280;53766;50.280;19.160;2023-05-11T06:14:47;98647.66;;;18.52;44.52
66857;BME280;53766;50.280;19.160;2023-05-11T06:17:15;98647.66;;;18.52;44.58
66857;BME280;53766;50.280;19.160;2023-05-11T06:19:42;98652.97;;;18.52;44.54
66857;BME280;53766;50.280;19.160;2023-05-11T06:22:10;98649.28;;;18.53;44.47
66857;BME280;53766;50.280;19.160;2023-05-11T06:24:37;98654.59;;;18.53;44.55
66857;BME280;53766;50.280;19.160;2023-05-11T06:27:04;98654.59;;;18.53;44.61
66857;BME280;53766;50.280;19.160;2023-05-11T06:29:32;98655.47;;;18.53;44.58
66857;BME280;53766;50.280;19.160;2023-05-11T06:32:00;98650.94;;;18.54;44.58
66857;BME280;53766;50.280;19.160;2023-05-11T06:34:27;98661.59;;;18.54;44.63
66857;BME280;53766;50.280;19.160;2023-05-11T06:36:58;98658.72;;;18.55;44.69
66857;BME280;53766;50.280;19.160;2023-05-11T06:39:25;98652.56;;;18.55;44.51
66857;BME280;53766;50.280;19.160;2023-05-11T06:41:52;98648.91;;;18.56;44.59
66857;BME280;53766;50.280;19.160;2023-05-11T06:44:22;98655.84;;;18.57;44.87
66857;BME280;53766;50.280;19.160;2023-05-11T06:46:50;98650.53;;;18.57;44.70
66857;BME280;53766;50.280;19.160;2023-05-11T06:49:17;98646.00;;;18.57;44.54
66857;BME280;53766;50.280;19.160;2023-05-11T06:51:45;98651.16;;;18.59;44.67
66857;BME280;53766;50.280;19.160;2023-05-11T06:54:12;98653.81;;;18.59;44.72
66857;BME280;53766;50.280;19.160;2023-05-11T06:56:40;98644.81;;;18.60;44.66
66857;BME280;53766;50.280;19.160;2023-05-11T06:59:08;98653.44;;;18.62;44.60
66857;BME280;53766;50.280;19.160;2023-05-11T07:01:35;98656.91;;;18.62;44.66
66857;BME280;53766;50.280;19.160;2023-05-11T07:04:03;98647.06;;;18.63;44.67
66857;BME280;53766;50.280;19.160;2023-05-11T07:06:30;98640.69;;;18.64;44.79
66857;BME280;53766;50.280;19.160;2023-05-11T07:08:59;98652.22;;;18.64;44.66
66857;BME280;53766;50.280;19.160;2023-05-11T07:11:27;98643.16;;;18.65;44.79
66857;BME280;53766;50.280;19.160;2023-05-11T07:13:54;98650.97;;;18.67;44.70
66857;BME280;53766;50.280;19.160;2023-05-11T07:16:22;98637.63;;;18.67;44.75
66857;BME280;53766;50.280;19.160;2023-05-11T07:18:49;98634.97;;;18.67;44.68
66857;BME280;53766;50.280;19.160;2023-05-11T07:21:17;98636.59;;;18.68;44.58
66857;BME280;53766;50.280;19.160;2023-05-11T07:23:44;98631.28;;;18.68;44.77
66857;BME280;53766;50.280;19.160;2023-05-11T07:26:12;98637.22;;;18.70;44.69
66857;BME280;53766;50.280;19.160;2023-05-11T07:28:40;98637.22;;;18.70;44.48
66857;BME280;53766;50.280;19.160;2023-05-11T07:31:07;98631.69;;;18.71;44.81
66857;BME280;53766;50.280;19.160;2023-05-11T07:33:38;98637.84;;;18.72;44.67
66857;BME280;53766;50.280;19.160;2023-05-11T07:36:06;98639.50;;;18.73;44.72
66857;BME280;53766;50.280;19.160;2023-05-11T07:38:33;98634.19;;;18.73;44.72
66857;BME280;53766;50.280;19.160;2023-05-11T07:41:02;98632.94;;;18.76;44.65
66857;BME280;53766;50.280;19.160;2023-05-11T07:43:32;98638.28;;;18.76;44.71
66857;BME280;53766;50.280;19.160;2023-05-11T07:46:00;98634.56;;;18.77;44.75
66857;BME280;53766;50.280;19.160;2023-05-11T07:48:27;98637.09;;;18.78;44.80
66857;BME280;53766;50.280;19.160;2023-05-11T07:50:55;98628.06;;;18.79;44.65
66857;BME280;53766;50.280;19.160;2023-05-11T07:53:22;98630.72;;;18.79;44.44
66857;BME280;53766;50.280;19.160;2023-05-11T07:55:50;98630.50;;;18.81;44.77
66857;BME280;53766;50.280;19.160;2023-05-11T07:58:17;98620.66;;;18.81;44.66
66857;BME280;53766;50.280;19.160;2023-05-11T08:00:45;98626.84;;;18.82;44.65
66857;BME280;53766;50.280;19.160;2023-05-11T08:03:12;98617.78;;;18.83;44.61
66857;BME280;53766;50.280;19.160;2023-05-11T08:05:40;98630.94;;;18.84;44.86
66857;BME280;53766;50.280;19.160;2023-05-11T08:08:08;98626.22;;;18.86;44.55
66857;BME280;53766;50.280;19.160;2023-05-11T08:10:35;98621.69;;;18.87;44.79
66857;BME280;53766;50.280;19.160;2023-05-11T08:13:03;98617.41;;;18.86;44.58
66857;BME280;53766;50.280;19.160;2023-05-11T08:15:30;98622.53;;;18.87;44.76
66857;BME280;53766;50.280;19.160;2023-05-11T08:17:58;98621.50;;;18.88;44.50
66857;BME280;53766;50.280;19.160;2023-05-11T08:20:27;98619.47;;;18.90;44.69
66857;BME280;53766;50.280;19.160;2023-05-11T08:22:54;98621.28;;;18.90;44.63
66857;BME280;53766;50.280;19.160;2023-05-11T08:25:21;98620.28;;;18.91;44.56
66857;BME280;53766;50.280;19.160;2023-05-11T08:27:48;98614.53;;;18.94;44.58
66857;BME280;53766;50.280;19.160;2023-05-11T08:30:16;98616.38;;;18.94;44.63
66857;BME280;53766;50.280;19.160;2023-05-11T08:32:44;98615.38;;;18.95;44.54
66857;BME280;53766;50.280;19.160;2023-05-11T08:35:14;98611.84;;;18.94;44.57
66857;BME280;53766;50.280;19.160;2023-05-11T08:37:42;98614.75;;;18.93;44.61
66857;BME280;53766;50.280;19.160;2023-05-11T08:40:10;98608.38;;;18.94;44.67
66857;BME280;53766;50.280;19.160;2023-05-11T08:42:43;98611.66;;;18.96;44.68
66857;BME280;53766;50.280;19.160;2023-05-11T08:45:11;98604.28;;;18.98;44.18
66857;BME280;53766;50.280;19.160;2023-05-11T08:47:39;98607.75;;;18.98;44.32
66857;BME280;53766;50.280;19.160;2023-05-11T08:50:07;98601.59;;;18.98;44.52
66857;BME280;53766;50.280;19.160;2023-05-11T08:52:34;98604.28;;;18.98;44.34
66857;BME280;53766;50.280;19.160;2023-05-11T08:55:02;98606.31;;;18.96;44.50
66857;BME280;53766;50.280;19.160;2023-05-11T08:57:30;98606.31;;;18.96;44.37
66857;BME280;53766;50.280;19.160;2023-05-11T09:00:00;98602.03;;;18.95;44.58
66857;BME280;53766;50.280;19.160;2023-05-11T09:02:28;98603.66;;;18.96;44.30
66857;BME280;53766;50.280;19.160;2023-05-11T09:04:58;98602.66;;;18.97;44.28
66857;BME280;53766;50.280;19.160;2023-05-11T09:07:28;98601.59;;;18.98;44.41
66857;BME280;53766;50.280;19.160;2023-05-11T09:09:56;98604.28;;;18.98;44.53
66857;BME280;53766;50.280;19.160;2023-05-11T09:12:24;98599.75;;;18.98;44.56
66857;BME280;53766;50.280;19.160;2023-05-11T09:14:54;98598.94;;;18.98;44.50
66857;BME280;53766;50.280;19.160;2023-05-11T09:17:28;98597.09;;;18.98;44.60
66857;BME280;53766;50.280;19.160;2023-05-11T09:20:00;98602.22;;;19.00;44.43
66857;BME280;53766;50.280;19.160;2023-05-11T09:22:27;98595.03;;;19.00;44.29
66857;BME280;53766;50.280;19.160;2023-05-11T09:25:01;98601.81;;;19.03;44.41
66857;BME280;53766;50.280;19.160;2023-05-11T09:27:28;98598.75;;;19.06;44.27
66857;BME280;53766;50.280;19.160;2023-05-11T09:29:56;98596.69;;;19.08;44.32
66857;BME280;53766;50.280;19.160;2023-05-11T09:32:23;98593.59;;;19.11;44.16
66857;BME280;53766;50.280;19.160;2023-05-11T09:34:51;98597.09;;;19.11;44.13
66857;BME280;53766;50.280;19.160;2023-05-11T09:37:18;98599.56;;;19.13;44.14
66857;BME280;53766;50.280;19.160;2023-05-11T09:39:52;98586.22;;;19.13;44.11
66857;BME280;53766;50.280;19.160;2023-05-11T09:42:24;98585.19;;;19.14;44.13
66857;BME280;53766;50.280;19.160;2023-05-11T09:44:52;98583.13;;;19.16;43.87
66857;BME280;53766;50.280;19.160;2023-05-11T09:47:20;98584.78;;;19.17;43.84
66857;BME280;53766;50.280;19.160;2023-05-11T09:49:50;98586.41;;;19.18;44.07
66857;BME280;53766;50.280;19.160;2023-05-11T09:52:18;98575.53;;;19.20;43.82
66857;BME280;53766;50.280;19.160;2023-05-11T09:54:50;98579.63;;;19.22;43.81
66857;BME280;53766;50.280;19.160;2023-05-11T09:57:28;98570.63;;;19.23;43.96
66857;BME280;53766;50.280;19.160;2023-05-11T09:59:58;98573.91;;;19.25;43.90
66857;BME280;53766;50.280;19.160;2023-05-11T10:02:30;98572.03;;;19.26;44.05
66857;BME280;53766;50.280;19.160;2023-05-11T10:04:59;98571.00;;;19.27;43.77
66857;BME280;53766;50.280;19.160;2023-05-11T10:07:29;98572.66;;;19.28;43.85
66857;BME280;53766;50.280;19.160;2023-05-11T10:09:59;98573.47;;;19.28;43.85
66857;BME280;53766;50.280;19.160;2023-05-11T10:12:28;98568.75;;;19.30;43.94
66857;BME280;53766;50.280;19.160;2023-05-11T10:15:07;98574.72;;;19.32;43.80
66857;BME280;53766;50.280;19.160;2023-05-11T10:17:35;98561.16;;;19.34;43.82
66857;BME280;53766;50.280;19.160;2023-05-11T10:20:04;98563.84;;;19.34;43.74
66857;BME280;53766;50.280;19.160;2023-05-11T10:22:32;98558.25;;;19.36;43.61
66857;BME280;53766;50.280;19.160;2023-05-11T10:25:01;98555.59;;;19.36;43.79
66857;BME280;53766;50.280;19.160;2023-05-11T10:27:30;98557.06;;;19.38;43.66
66857;BME280;53766;50.280;19.160;2023-05-11T10:29:58;98563.81;;;19.41;43.64
66857;BME280;53766;50.280;19.160;2023-05-11T10:32:26;98568.13;;;19.42;43.62
66857;BME280;53766;50.280;19.160;2023-05-11T10:34:55;98568.13;;;19.42;43.60
66857;BME280;53766;50.280;19.160;2023-05-11T10:37:22;98559.09;;;19.43;43.53
66857;BME280;53766;50.280;19.160;2023-05-11T10:39:51;98558.06;;;19.44;43.55
66857;BME280;53766;50.280;19.160;2023-05-11T10:42:35;98556.81;;;19.46;43.63
66857;BME280;53766;50.280;19.160;2023-05-11T10:48:43;98544.31;;;19.47;43.52
66857;BME280;53766;50.280;19.160;2023-05-11T11:02:22;98542.44;;;19.54;43.49
66857;BME280;53766;50.280;19.160;2023-05-11T11:04:50;98539.75;;;19.54;43.33
66857;BME280;53766;50.280;19.160;2023-05-11T11:07:18;98538.72;;;19.55;43.28
66857;BME280;53766;50.280;19.160;2023-05-11T11:10:00;98534.81;;;19.58;43.43
66857;BME280;53766;50.280;19.160;2023-05-11T11:12:33;98541.78;;;19.59;43.40
66857;BME280;53766;50.280;19.160;2023-05-11T11:15:03;98532.97;;;19.58;43.31
66857;BME280;53766;50.280;19.160;2023-05-11T11:17:33;98533.59;;;19.60;43.34
66857;BME280;53766;50.280;19.160;2023-05-11T11:20:05;98540.56;;;19.61;43.21
66857;BME280;53766;50.280;19.160;2023-05-11T11:22:42;98540.56;;;19.61;43.29
66857;BME280;53766;50.280;19.160;2023-05-11T11:25:14;98540.16;;;19.64;43.26
66857;BME280;53766;50.280;19.160;2023-05-11T11:32:51;98541.78;;;19.65;43.21
66857;BME280;53766;50.280;19.160;2023-05-11T11:38:17;98530.06;;;19.66;43.26
66857;BME280;53766;50.280;19.160;2023-05-11T11:40:46;98525.31;;;19.68;43.24
66857;BME280;53766;50.280;19.160;2023-05-11T11:43:20;98532.34;;;19.69;43.24
66857;BME280;53766;50.280;19.160;2023-05-11T11:45:58;98532.34;;;19.69;43.25
66857;BME280;53766;50.280;19.160;2023-05-11T11:48:31;98539.31;;;19.70;43.37
66857;BME280;53766;50.280;19.160;2023-05-11T11:51:10;98532.97;;;19.71;43.34
66857;BME280;53766;50.280;19.160;2023-05-11T12:01:14;98533.97;;;19.70;43.26
66857;BME280;53766;50.280;19.160;2023-05-11T12:03:44;98531.91;;;19.72;43.34
66857;BME280;53766;50.280;19.160;2023-05-11T12:06:20;98529.84;;;19.75;43.19
66857;BME280;53766;50.280;19.160;2023-05-11T12:08:52;98526.97;;;19.76;43.12
66857;BME280;53766;50.280;19.160;2023-05-11T12:11:20;98517.09;;;19.77;43.29
66857;BME280;53766;50.280;19.160;2023-05-11T12:13:49;98524.94;;;19.78;43.15
66857;BME280;53766;50.280;19.160;2023-05-11T12:16:17;98532.31;;;19.76;43.16
66857;BME280;53766;50.280;19.160;2023-05-11T12:18:53;98523.69;;;19.74;43.18
66857;BME280;53766;50.280;19.160;2023-05-11T12:21:23;98526.78;;;19.78;42.97
66857;BME280;53766;50.280;19.160;2023-05-11T12:26:20;98504.16;;;19.80;43.04
66857;BME280;53766;50.280;19.160;2023-05-11T12:29:06;98516.47;;;19.81;43.01
66857;BME280;53766;50.280;19.160;2023-05-11T12:31:35;98510.94;;;19.83;43.02
66857;BME280;53766;50.280;19.160;2023-05-11T12:34:03;98515.47;;;19.82;43.04
66857;BME280;53766;50.280;19.160;2023-05-11T12:36:32;98510.13;;;19.82;43.14
66857;BME280;53766;50.280;19.160;2023-05-11T12:39:00;98506.81;;;19.80;43.11
66857;BME280;53766;50.280;19.160;2023-05-11T12:41:27;98506.41;;;19.83;43.01
66857;BME280;53766;50.280;19.160;2023-05-11T12:43:55;98509.91;;;19.84;42.93
66857;BME280;53766;50.280;19.160;2023-05-11T12:46:23;98510.94;;;19.83;42.82
66857;BME280;53766;50.280;19.160;2023-05-11T12:48:51;98501.91;;;19.84;42.87
66857;BME280;53766;50.280;19.160;2023-05-11T12:51:44;98506.81;;;19.87;42.97
66857;BME280;53766;50.280;19.160;2023-05-11T12:54:33;98494.88;;;19.83;42.91
66857;BME280;53766;50.280;19.160;2023-05-11T12:57:01;98491.19;;;19.84;42.97
66857;BME280;53766;50.280;19.160;2023-05-11T12:59:34;98493.25;;;19.82;43.12
66857;BME280;53766;50.280;19.160;2023-05-11T13:02:17;98489.97;;;19.80;43.13
66857;BME280;53766;50.280;19.160;2023-05-11T13:04:46;98488.72;;;19.82;43.17
66857;BME280;53766;50.280;19.160;2023-05-11T13:07:23;98492.81;;;19.85;42.92
66857;BME280;53766;50.280;19.160;2023-05-11T13:09:56;98496.13;;;19.87;42.87
66857;BME280;53766;50.280;19.160;2023-05-11T13:12:24;98481.69;;;19.88;42.83
66857;BME280;53766;50.280;19.160;2023-05-11T13:15:09;98482.53;;;19.88;42.87
66857;BME280;53766;50.280;19.160;2023-05-11T13:17:40;98480.69;;;19.89;42.86
66857;BME280;53766;50.280;19.160;2023-05-11T13:20:31;98476.97;;;19.90;43.02
66857;BME280;53766;50.280;19.160;2023-05-11T13:23:07;98471.00;;;19.88;42.73
66857;BME280;53766;50.280;19.160;2023-05-11T13:28:13;98464.22;;;19.92;42.60
66857;BME280;53766;50.280;19.160;2023-05-11T13:30:42;98460.94;;;19.90;42.54
66857;BME280;53766;50.280;19.160;2023-05-11T13:33:10;98461.97;;;19.89;42.76
66857;BME280;53766;50.280;19.160;2023-05-11T13:35:41;98470.00;;;19.89;42.56
66857;BME280;53766;50.280;19.160;2023-05-11T13:38:09;98461.97;;;19.89;42.65
66857;BME280;53766;50.280;19.160;2023-05-11T13:40:38;98463.19;;;19.93;42.63
66857;BME280;53766;50.280;19.160;2023-05-11T13:43:05;98453.31;;;19.93;42.58
66857;BME280;53766;50.280;19.160;2023-05-11T13:45:33;98460.28;;;19.94;42.55
66857;BME280;53766;50.280;19.160;2023-05-11T13:48:02;98454.72;;;19.96;42.49
66857;BME280;53766;50.280;19.160;2023-05-11T13:50:30;98459.06;;;19.97;42.36
66857;BME280;53766;50.280;19.160;2023-05-11T13:52:58;98459.88;;;19.98;42.51